sensor_id;sensor_type;location;lat;lon;timestamp;P1;durP1;ratioP1;P2;durP2;ratioP2
12725;SDS011;6427;49.754;6.106;2024-03-23T00:55:27;19.27;;;11.03;;
12725;SDS011;6427;49.754;6.106;2024-03-23T00:57:54;16.57;;;10.30;;
12725;SDS011;6427;49.754;6.106;2024-03-23T01:00:22;18.43;;;10.77;;
12725;SDS011;6427;49.754;6.106;2024-03-23T01:02:49;19.23;;;10.80;;
12725;SDS011;6427;49.754;6.106;2024-03-23T01:05:17;14.50;;;9.63;;
12725;SDS011;6427;49.754;6.106;2024-03-23T01:07:45;19.23;;;12.93;;
12725;SDS011;6427;49.754;6.106;2024-03-23T01:10:12;14.93;;;10.23;;
12725;SDS011;6427;49.754;6.106;2024-03-23T01:12:40;14.03;;;9.47;;
12725;SDS011;6427;49.754;6.106;2024-03-23T01:15:08;17.20;;;9.10;;
12725;SDS011;6427;49.754;6.106;2024-03-23T01:17:35;15.00;;;9.10;;
12725;SDS011;6427;49.754;6.106;2024-03-23T01:20:03;14.27;;;8.30;;
12725;SDS011;6427;49.754;6.106;2024-03-23T01:22:31;15.80;;;9.20;;
12725;SDS011;6427;49.754;6.106;2024-03-23T01:24:59;15.95;;;10.95;;
12725;SDS011;6427;49.754;6.106;2024-03-23T01:27:26;11.97;;;8.13;;
12725;SDS011;6427;49.754;6.106;2024-03-23T01:29:54;13.50;;;9.60;;
12725;SDS011;6427;49.754;6.106;2024-03-23T01:34:54;6.13;;;3.57;;
12725;SDS011;6427;49.754;6.106;2024-03-23T01:37:22;3.53;;;2.27;;
12725;SDS011;6427;49.754;6.106;2024-03-23T01:39:49;3.87;;;2.40;;
12725;SDS011;6427;49.754;6.106;2024-03-23T01:42:17;2.35;;;1.90;;
12725;SDS011;6427;49.754;6.106;2024-03-23T01:44:44;3.00;;;2.07;;
12725;SDS011;6427;49.754;6.106;2024-03-23T01:47:12;1.40;;;1.20;;
12725;SDS011;6427;49.754;6.106;2024-03-23T01:49:39;0.97;;;0.60;;
12725;SDS011;6427;49.754;6.106;2024-03-23T01:52:07;0.50;;;0.50;;
12725;SDS011;6427;49.754;6.106;2024-03-23T01:54:35;1.50;;;0.80;;
12725;SDS011;6427;49.754;6.106;2024-03-23T01:57:02;0.80;;;0.60;;
12725;SDS011;6427;49.754;6.106;2024-03-23T01:59:30;0.83;;;0.30;;
12725;SDS011;6427;49.754;6.106;2024-03-23T02:01:57;0.50;;;0.37;;
12725;SDS011;6427;49.754;6.106;2024-03-23T02:04:25;0.37;;;0.30;;
12725;SDS011;6427;49.754;6.106;2024-03-23T02:06:52;0.23;;;0.23;;
12725;SDS011;6427;49.754;6.106;2024-03-23T02:09:20;0.20;;;0.20;;
12725;SDS011;6427;49.754;6.106;2024-03-23T02:11:48;0.37;;;0.37;;
12725;SDS011;6427;49.754;6.106;2024-03-23T02:14:16;0.30;;;0.20;;
12725;SDS011;6427;49.754;6.106;2024-03-23T02:16:43;0.40;;;0.20;;
12725;SDS011;6427;49.754;6.106;2024-03-23T02:19:11;0.20;;;0.20;;
12725;SDS011;6427;49.754;6.106;2024-03-23T02:21:38;0.10;;;0.10;;
12725;SDS011;6427;49.754;6.106;2024-03-23T02:24:07;0.30;;;0.27;;
12725;SDS011;6427;49.754;6.106;2024-03-23T02:26:34;0.20;;;0.20;;
12725;SDS011;6427;49.754;6.106;2024-03-23T02:29:02;0.30;;;0.30;;
12725;SDS011;6427;49.754;6.106;2024-03-23T02:31:29;0.20;;;0.20;;
12725;SDS011;6427;49.754;6.106;2024-03-23T02:33:58;0.47;;;0.30;;
12725;SDS011;6427;49.754;6.106;2024-03-23T02:36:25;0.37;;;0.27;;
12725;SDS011;6427;49.754;6.106;2024-03-23T02:38:53;0.20;;;0.20;;
12725;SDS011;6427;49.754;6.106;2024-03-23T02:41:20;0.27;;;0.27;;
12725;SDS011;6427;49.754;6.106;2024-03-23T02:43:49;0.20;;;0.20;;
12725;SDS011;6427;49.754;6.106;2024-03-23T02:46:16;1.27;;;0.23;;
12725;SDS011;6427;49.754;6.106;2024-03-23T02:48:43;0.30;;;0.30;;
12725;SDS011;6427;49.754;6.106;2024-03-23T02:51:11;1.10;;;0.50;;
12725;SDS011;6427;49.754;6.106;2024-03-23T02:53:38;1.03;;;0.77;;
12725;SDS011;6427;49.754;6.106;2024-03-23T02:56:06;0.50;;;0.50;;
12725;SDS011;6427;49.754;6.106;2024-03-23T02:58:33;0.53;;;0.50;;
12725;SDS011;6427;49.754;6.106;2024-03-23T03:01:01;0.90;;;0.82;;
12725;SDS011;6427;49.754;6.106;2024-03-23T03:03:28;0.90;;;0.73;;
12725;SDS011;6427;49.754;6.106;2024-03-23T03:05:56;1.00;;;0.63;;
12725;SDS011;6427;49.754;6.106;2024-03-23T03:08:24;1.47;;;0.70;;
12725;SDS011;6427;49.754;6.106;2024-03-23T03:10:51;1.00;;;0.90;;
12725;SDS011;6427;49.754;6.106;2024-03-23T03:13:19;1.10;;;1.00;;
12725;SDS011;6427;49.754;6.106;2024-03-23T03:15:46;1.70;;;0.80;;
12725;SDS011;6427;49.754;6.106;2024-03-23T03:18:14;1.70;;;1.00;;
12725;SDS011;6427;49.754;6.106;2024-03-23T03:20:42;1.20;;;1.00;;
12725;SDS011;6427;49.754;6.106;2024-03-23T03:23:10;2.30;;;0.80;;
12725;SDS011;6427;49.754;6.106;2024-03-23T03:25:37;0.83;;;0.70;;
12725;SDS011;6427;49.754;6.106;2024-03-23T03:28:06;1.53;;;0.43;;
12725;SDS011;6427;49.754;6.106;2024-03-23T03:30:33;0.60;;;0.60;;
12725;SDS011;6427;49.754;6.106;2024-03-23T03:33:01;0.50;;;0.40;;
12725;SDS011;6427;49.754;6.106;2024-03-23T03:35:29;0.40;;;0.40;;
12725;SDS011;6427;49.754;6.106;2024-03-23T03:37:57;0.45;;;0.40;;
12725;SDS011;6427;49.754;6.106;2024-03-23T03:40:24;0.50;;;0.40;;
12725;SDS011;6427;49.754;6.106;2024-03-23T03:42:52;0.20;;;0.10;;
12725;SDS011;6427;49.754;6.106;2024-03-23T03:45:19;0.40;;;0.20;;
12725;SDS011;6427;49.754;6.106;2024-03-23T03:47:47;0.80;;;0.20;;
12725;SDS011;6427;49.754;6.106;2024-03-23T03:50:14;0.70;;;0.40;;
12725;SDS011;6427;49.754;6.106;2024-03-23T03:52:42;0.68;;;0.30;;
12725;SDS011;6427;49.754;6.106;2024-03-23T03:55:13;1.10;;;0.40;;
12725;SDS011;6427;49.754;6.106;2024-03-23T03:57:40;1.30;;;0.30;;
12725;SDS011;6427;49.754;6.106;2024-03-23T04:00:08;0.62;;;0.40;;
12725;SDS011;6427;49.754;6.106;2024-03-23T04:02:38;1.10;;;0.60;;
12725;SDS011;6427;49.754;6.106;2024-03-23T04:05:07;0.95;;;0.60;;
12725;SDS011;6427;49.754;6.106;2024-03-23T04:10:11;1.97;;;0.60;;
12725;SDS011;6427;49.754;6.106;2024-03-23T04:12:39;1.17;;;0.60;;
12725;SDS011;6427;49.754;6.106;2024-03-23T04:15:07;1.35;;;1.00;;
12725;SDS011;6427;49.754;6.106;2024-03-23T04:17:35;1.83;;;0.90;;
12725;SDS011;6427;49.754;6.106;2024-03-23T04:20:03;3.30;;;1.00;;
12725;SDS011;6427;49.754;6.106;2024-03-23T04:22:30;2.07;;;1.00;;
12725;SDS011;6427;49.754;6.106;2024-03-23T04:24:57;2.20;;;1.20;;
12725;SDS011;6427;49.754;6.106;2024-03-23T04:27:25;2.30;;;1.00;;
12725;SDS011;6427;49.754;6.106;2024-03-23T04:29:53;3.07;;;1.20;;
12725;SDS011;6427;49.754;6.106;2024-03-23T04:32:21;6.73;;;1.30;;
12725;SDS011;6427;49.754;6.106;2024-03-23T04:34:48;1.63;;;1.10;;
12725;SDS011;6427;49.754;6.106;2024-03-23T04:37:16;6.57;;;1.40;;
12725;SDS011;6427;49.754;6.106;2024-03-23T04:39:44;5.03;;;1.50;;
12725;SDS011;6427;49.754;6.106;2024-03-23T04:42:14;4.37;;;1.63;;
12725;SDS011;6427;49.754;6.106;2024-03-23T04:44:39;6.40;;;1.50;;
12725;SDS011;6427;49.754;6.106;2024-03-23T04:47:07;6.73;;;1.63;;
12725;SDS011;6427;49.754;6.106;2024-03-23T04:49:35;2.90;;;1.40;;
12725;SDS011;6427;49.754;6.106;2024-03-23T04:52:03;4.00;;;1.13;;
12725;SDS011;6427;49.754;6.106;2024-03-23T04:54:30;5.90;;;1.20;;
12725;SDS011;6427;49.754;6.106;2024-03-23T04:56:58;4.07;;;1.40;;
12725;SDS011;6427;49.754;6.106;2024-03-23T04:59:25;4.20;;;1.10;;
12725;SDS011;6427;49.754;6.106;2024-03-23T05:01:54;7.93;;;1.20;;
12725;SDS011;6427;49.754;6.106;2024-03-23T05:04:21;3.30;;;1.43;;
12725;SDS011;6427;49.754;6.106;2024-03-23T05:06:49;5.18;;;1.98;;
12725;SDS011;6427;49.754;6.106;2024-03-23T05:09:16;4.17;;;1.63;;
12725;SDS011;6427;49.754;6.106;2024-03-23T05:11:44;5.13;;;1.90;;
12725;SDS011;6427;49.754;6.106;2024-03-23T05:14:12;5.53;;;1.50;;
12725;SDS011;6427;49.754;6.106;2024-03-23T05:16:39;6.03;;;2.40;;
12725;SDS011;6427;49.754;6.106;2024-03-23T05:19:07;4.63;;;2.40;;
12725;SDS011;6427;49.754;6.106;2024-03-23T05:21:34;7.78;;;2.58;;
12725;SDS011;6427;49.754;6.106;2024-03-23T05:24:02;8.83;;;2.57;;
12725;SDS011;6427;49.754;6.106;2024-03-23T05:26:29;5.43;;;2.17;;
12725;SDS011;6427;49.754;6.106;2024-03-23T05:28:57;5.73;;;2.27;;
12725;SDS011;6427;49.754;6.106;2024-03-23T05:31:25;8.53;;;2.30;;
12725;SDS011;6427;49.754;6.106;2024-03-23T05:33:52;7.80;;;3.10;;
12725;SDS011;6427;49.754;6.106;2024-03-23T05:36:20;8.73;;;3.00;;
12725;SDS011;6427;49.754;6.106;2024-03-23T05:38:47;9.90;;;4.57;;
12725;SDS011;6427;49.754;6.106;2024-03-23T05:41:15;12.97;;;5.70;;
12725;SDS011;6427;49.754;6.106;2024-03-23T05:43:42;17.30;;;6.37;;
12725;SDS011;6427;49.754;6.106;2024-03-23T05:46:10;13.37;;;5.87;;
12725;SDS011;6427;49.754;6.106;2024-03-23T05:48:37;13.83;;;6.20;;
12725;SDS011;6427;49.754;6.106;2024-03-23T05:51:05;14.53;;;5.80;;
12725;SDS011;6427;49.754;6.106;2024-03-23T05:53:34;18.33;;;7.67;;
12725;SDS011;6427;49.754;6.106;2024-03-23T05:56:01;15.15;;;7.15;;
12725;SDS011;6427;49.754;6.106;2024-03-23T05:58:28;11.03;;;4.67;;
12725;SDS011;6427;49.754;6.106;2024-03-23T06:01:02;9.07;;;4.33;;
12725;SDS011;6427;49.754;6.106;2024-03-23T06:03:27;6.70;;;3.40;;
12725;SDS011;6427;49.754;6.106;2024-03-23T06:05:55;8.70;;;3.60;;
12725;SDS011;6427;49.754;6.106;2024-03-23T06:08:22;15.47;;;4.87;;
12725;SDS011;6427;49.754;6.106;2024-03-23T06:10:50;8.87;;;4.50;;
12725;SDS011;6427;49.754;6.106;2024-03-23T06:13:18;12.60;;;5.70;;
12725;SDS011;6427;49.754;6.106;2024-03-23T06:15:46;10.27;;;4.83;;
12725;SDS011;6427;49.754;6.106;2024-03-23T06:18:13;11.37;;;5.83;;
12725;SDS011;6427;49.754;6.106;2024-03-23T06:20:41;13.80;;;5.43;;
12725;SDS011;6427;49.754;6.106;2024-03-23T06:23:09;11.33;;;5.57;;
12725;SDS011;6427;49.754;6.106;2024-03-23T06:25:37;13.95;;;6.78;;
12725;SDS011;6427;49.754;6.106;2024-03-23T06:28:05;14.43;;;7.00;;
12725;SDS011;6427;49.754;6.106;2024-03-23T06:30:33;19.97;;;6.83;;
12725;SDS011;6427;49.754;6.106;2024-03-23T06:33:01;13.00;;;5.67;;
12725;SDS011;6427;49.754;6.106;2024-03-23T06:35:28;15.40;;;7.60;;
12725;SDS011;6427;49.754;6.106;2024-03-23T06:37:56;14.97;;;6.20;;
12725;SDS011;6427;49.754;6.106;2024-03-23T06:40:24;10.57;;;5.67;;
12725;SDS011;6427;49.754;6.106;2024-03-23T06:42:52;11.23;;;5.60;;
12725;SDS011;6427;49.754;6.106;2024-03-23T06:45:19;15.57;;;6.47;;
12725;SDS011;6427;49.754;6.106;2024-03-23T06:47:47;12.53;;;5.63;;
12725;SDS011;6427;49.754;6.106;2024-03-23T06:50:14;13.20;;;6.77;;
12725;SDS011;6427;49.754;6.106;2024-03-23T06:52:42;9.93;;;5.17;;
12725;SDS011;6427;49.754;6.106;2024-03-23T06:55:09;15.07;;;5.20;;
12725;SDS011;6427;49.754;6.106;2024-03-23T06:57:37;12.47;;;6.03;;
12725;SDS011;6427;49.754;6.106;2024-03-23T07:00:05;15.63;;;5.70;;
12725;SDS011;6427;49.754;6.106;2024-03-23T07:02:34;12.67;;;5.87;;
12725;SDS011;6427;49.754;6.106;2024-03-23T07:05:02;12.13;;;5.80;;
12725;SDS011;6427;49.754;6.106;2024-03-23T07:07:30;16.13;;;6.77;;
12725;SDS011;6427;49.754;6.106;2024-03-23T07:09:58;10.23;;;5.97;;
12725;SDS011;6427;49.754;6.106;2024-03-23T07:12:25;15.27;;;6.70;;
12725;SDS011;6427;49.754;6.106;2024-03-23T07:14:53;12.10;;;6.70;;
12725;SDS011;6427;49.754;6.106;2024-03-23T07:17:21;14.13;;;6.07;;
12725;SDS011;6427;49.754;6.106;2024-03-23T07:19:49;13.60;;;6.37;;
12725;SDS011;6427;49.754;6.106;2024-03-23T07:22:16;20.70;;;7.20;;
12725;SDS011;6427;49.754;6.106;2024-03-23T07:24:44;12.97;;;6.73;;
12725;SDS011;6427;49.754;6.106;2024-03-23T07:27:12;16.70;;;6.73;;
12725;SDS011;6427;49.754;6.106;2024-03-23T07:29:40;15.73;;;6.83;;
12725;SDS011;6427;49.754;6.106;2024-03-23T07:32:07;15.73;;;7.07;;
12725;SDS011;6427;49.754;6.106;2024-03-23T07:34:35;13.93;;;6.37;;
12725;SDS011;6427;49.754;6.106;2024-03-23T07:37:02;16.50;;;6.40;;
12725;SDS011;6427;49.754;6.106;2024-03-23T07:39:30;13.83;;;6.73;;
12725;SDS011;6427;49.754;6.106;2024-03-23T07:41:58;13.37;;;6.67;;
12725;SDS011;6427;49.754;6.106;2024-03-23T07:44:26;21.63;;;8.00;;
12725;SDS011;6427;49.754;6.106;2024-03-23T07:46:54;20.63;;;7.33;;
12725;SDS011;6427;49.754;6.106;2024-03-23T07:49:22;15.00;;;7.00;;
12725;SDS011;6427;49.754;6.106;2024-03-23T07:51:49;15.20;;;7.73;;
12725;SDS011;6427;49.754;6.106;2024-03-23T07:54:17;19.43;;;6.63;;
12725;SDS011;6427;49.754;6.106;2024-03-23T07:56:45;15.83;;;6.70;;
12725;SDS011;6427;49.754;6.106;2024-03-23T07:59:13;14.93;;;6.83;;
12725;SDS011;6427;49.754;6.106;2024-03-23T08:01:40;12.50;;;6.90;;
12725;SDS011;6427;49.754;6.106;2024-03-23T08:04:08;16.60;;;7.03;;
12725;SDS011;6427;49.754;6.106;2024-03-23T08:06:35;17.20;;;6.70;;
12725;SDS011;6427;49.754;6.106;2024-03-23T08:09:03;12.23;;;5.73;;
12725;SDS011;6427;49.754;6.106;2024-03-23T08:11:31;12.93;;;5.33;;
12725;SDS011;6427;49.754;6.106;2024-03-23T08:13:59;10.87;;;4.87;;
12725;SDS011;6427;49.754;6.106;2024-03-23T08:16:26;13.93;;;5.23;;
12725;SDS011;6427;49.754;6.106;2024-03-23T08:18:54;13.13;;;5.33;;
12725;SDS011;6427;49.754;6.106;2024-03-23T08:21:24;17.53;;;5.10;;
12725;SDS011;6427;49.754;6.106;2024-03-23T08:23:51;12.23;;;4.70;;
12725;SDS011;6427;49.754;6.106;2024-03-23T08:26:19;12.20;;;4.30;;
12725;SDS011;6427;49.754;6.106;2024-03-23T08:28:47;12.97;;;4.90;;
12725;SDS011;6427;49.754;6.106;2024-03-23T08:31:14;11.03;;;4.53;;
12725;SDS011;6427;49.754;6.106;2024-03-23T08:33:42;11.67;;;4.30;;
12725;SDS011;6427;49.754;6.106;2024-03-23T08:36:10;12.73;;;4.70;;
12725;SDS011;6427;49.754;6.106;2024-03-23T08:38:41;10.63;;;4.10;;
12725;SDS011;6427;49.754;6.106;2024-03-23T08:41:09;11.93;;;4.00;;
12725;SDS011;6427;49.754;6.106;2024-03-23T08:43:37;13.30;;;4.40;;
12725;SDS011;6427;49.754;6.106;2024-03-23T08:46:07;16.07;;;4.80;;
12725;SDS011;6427;49.754;6.106;2024-03-23T08:48:34;15.60;;;5.10;;
12725;SDS011;6427;49.754;6.106;2024-03-23T08:51:06;9.53;;;3.97;;
12725;SDS011;6427;49.754;6.106;2024-03-23T08:53:34;12.77;;;5.63;;
12725;SDS011;6427;49.754;6.106;2024-03-23T08:56:01;13.50;;;6.32;;
12725;SDS011;6427;49.754;6.106;2024-03-23T08:58:30;12.57;;;6.53;;
12725;SDS011;6427;49.754;6.106;2024-03-23T09:01:02;16.27;;;5.87;;
12725;SDS011;6427;49.754;6.106;2024-03-23T09:03:25;13.53;;;5.47;;
12725;SDS011;6427;49.754;6.106;2024-03-23T09:05:53;15.90;;;5.00;;
12725;SDS011;6427;49.754;6.106;2024-03-23T09:08:20;12.00;;;5.27;;
12725;SDS011;6427;49.754;6.106;2024-03-23T09:10:48;14.03;;;5.23;;
12725;SDS011;6427;49.754;6.106;2024-03-23T09:13:15;12.00;;;4.43;;
12725;SDS011;6427;49.754;6.106;2024-03-23T09:15:47;11.70;;;4.40;;
12725;SDS011;6427;49.754;6.106;2024-03-23T09:18:14;12.47;;;4.57;;
12725;SDS011;6427;49.754;6.106;2024-03-23T09:20:42;12.23;;;4.87;;
12725;SDS011;6427;49.754;6.106;2024-03-23T09:23:09;11.47;;;3.77;;
12725;SDS011;6427;49.754;6.106;2024-03-23T09:25:37;10.63;;;4.33;;
12725;SDS011;6427;49.754;6.106;2024-03-23T09:28:05;10.03;;;3.60;;
12725;SDS011;6427;49.754;6.106;2024-03-23T09:30:38;9.23;;;3.90;;
12725;SDS011;6427;49.754;6.106;2024-03-23T09:33:06;9.80;;;3.37;;
12725;SDS011;6427;49.754;6.106;2024-03-23T09:35:36;6.47;;;2.80;;
12725;SDS011;6427;49.754;6.106;2024-03-23T09:38:04;9.35;;;3.17;;
12725;SDS011;6427;49.754;6.106;2024-03-23T09:40:31;10.88;;;3.42;;
12725;SDS011;6427;49.754;6.106;2024-03-23T09:42:59;9.57;;;2.63;;
12725;SDS011;6427;49.754;6.106;2024-03-23T09:45:27;10.17;;;2.77;;
12725;SDS011;6427;49.754;6.106;2024-03-23T09:47:56;10.17;;;2.80;;
12725;SDS011;6427;49.754;6.106;2024-03-23T09:50:24;11.77;;;2.60;;
12725;SDS011;6427;49.754;6.106;2024-03-23T09:52:52;7.15;;;2.60;;
12725;SDS011;6427;49.754;6.106;2024-03-23T09:55:19;11.03;;;2.33;;
12725;SDS011;6427;49.754;6.106;2024-03-23T09:57:47;8.87;;;2.47;;
12725;SDS011;6427;49.754;6.106;2024-03-23T10:00:14;9.97;;;2.40;;
12725;SDS011;6427;49.754;6.106;2024-03-23T10:02:42;4.83;;;2.00;;
12725;SDS011;6427;49.754;6.106;2024-03-23T10:05:19;10.97;;;2.20;;
12725;SDS011;6427;49.754;6.106;2024-03-23T10:07:43;5.07;;;1.90;;
12725;SDS011;6427;49.754;6.106;2024-03-23T10:10:11;2.87;;;1.33;;
12725;SDS011;6427;49.754;6.106;2024-03-23T10:12:43;1.20;;;0.50;;
12725;SDS011;6427;49.754;6.106;2024-03-23T10:15:10;4.22;;;0.70;;
12725;SDS011;6427;49.754;6.106;2024-03-23T10:17:34;3.43;;;0.70;;
12725;SDS011;6427;49.754;6.106;2024-03-23T10:20:01;0.53;;;0.40;;
12725;SDS011;6427;49.754;6.106;2024-03-23T10:22:29;0.40;;;0.30;;
12725;SDS011;6427;49.754;6.106;2024-03-23T10:24:56;0.77;;;0.50;;
12725;SDS011;6427;49.754;6.106;2024-03-23T10:27:24;2.03;;;0.23;;
12725;SDS011;6427;49.754;6.106;2024-03-23T10:29:52;0.23;;;0.10;;
12725;SDS011;6427;49.754;6.106;2024-03-23T10:32:19;0.70;;;0.13;;
12725;SDS011;6427;49.754;6.106;2024-03-23T10:34:47;0.85;;;0.20;;
12725;SDS011;6427;49.754;6.106;2024-03-23T10:37:14;0.93;;;0.20;;
12725;SDS011;6427;49.754;6.106;2024-03-23T10:39:42;0.73;;;0.20;;
12725;SDS011;6427;49.754;6.106;2024-03-23T10:42:09;1.17;;;0.30;;
12725;SDS011;6427;49.754;6.106;2024-03-23T10:44:38;1.03;;;0.47;;
12725;SDS011;6427;49.754;6.106;2024-03-23T10:47:06;0.93;;;0.40;;
12725;SDS011;6427;49.754;6.106;2024-03-23T10:49:33;1.13;;;0.60;;
12725;SDS011;6427;49.754;6.106;2024-03-23T10:52:04;1.58;;;0.70;;
12725;SDS011;6427;49.754;6.106;2024-03-23T10:54:32;1.47;;;0.63;;
12725;SDS011;6427;49.754;6.106;2024-03-23T10:57:06;2.80;;;0.97;;
12725;SDS011;6427;49.754;6.106;2024-03-23T10:59:33;6.83;;;1.10;;
12725;SDS011;6427;49.754;6.106;2024-03-23T11:02:01;4.57;;;1.50;;
12725;SDS011;6427;49.754;6.106;2024-03-23T11:04:32;2.33;;;0.80;;
12725;SDS011;6427;49.754;6.106;2024-03-23T11:09:53;5.70;;;1.10;;
12725;SDS011;6427;49.754;6.106;2024-03-23T11:17:32;5.23;;;1.33;;
12725;SDS011;6427;49.754;6.106;2024-03-23T11:20:00;6.62;;;1.40;;
12725;SDS011;6427;49.754;6.106;2024-03-23T11:25:19;5.40;;;1.33;;
12725;SDS011;6427;49.754;6.106;2024-03-23T11:27:50;3.77;;;1.00;;
12725;SDS011;6427;49.754;6.106;2024-03-23T11:30:24;2.03;;;0.80;;
12725;SDS011;6427;49.754;6.106;2024-03-23T11:32:54;1.97;;;0.70;;
12725;SDS011;6427;49.754;6.106;2024-03-23T11:35:31;1.30;;;0.63;;
12725;SDS011;6427;49.754;6.106;2024-03-23T11:40:32;8.20;;;1.57;;
12725;SDS011;6427;49.754;6.106;2024-03-23T11:43:00;2.67;;;0.73;;
12725;SDS011;6427;49.754;6.106;2024-03-23T11:45:28;2.70;;;0.63;;
12725;SDS011;6427;49.754;6.106;2024-03-23T11:48:09;5.77;;;1.00;;
12725;SDS011;6427;49.754;6.106;2024-03-23T11:50:36;3.50;;;0.60;;
12725;SDS011;6427;49.754;6.106;2024-03-23T11:55:41;1.20;;;0.30;;
12725;SDS011;6427;49.754;6.106;2024-03-23T11:58:13;2.80;;;0.53;;
12725;SDS011;6427;49.754;6.106;2024-03-23T12:00:40;1.90;;;0.60;;
12725;SDS011;6427;49.754;6.106;2024-03-23T12:03:08;1.33;;;0.70;;
12725;SDS011;6427;49.754;6.106;2024-03-23T12:05:36;0.70;;;0.40;;
12725;SDS011;6427;49.754;6.106;2024-03-23T12:08:16;2.13;;;0.67;;
12725;SDS011;6427;49.754;6.106;2024-03-23T12:10:47;2.23;;;0.40;;
12725;SDS011;6427;49.754;6.106;2024-03-23T12:13:16;2.83;;;0.50;;
12725;SDS011;6427;49.754;6.106;2024-03-23T12:15:47;2.10;;;0.60;;
12725;SDS011;6427;49.754;6.106;2024-03-23T12:18:15;1.73;;;0.80;;
12725;SDS011;6427;49.754;6.106;2024-03-23T12:20:43;1.13;;;0.70;;
12725;SDS011;6427;49.754;6.106;2024-03-23T12:23:11;3.20;;;0.50;;
12725;SDS011;6427;49.754;6.106;2024-03-23T12:25:38;5.07;;;0.70;;
12725;SDS011;6427;49.754;6.106;2024-03-23T12:28:06;2.27;;;0.53;;
12725;SDS011;6427;49.754;6.106;2024-03-23T12:30:38;3.72;;;0.80;;
12725;SDS011;6427;49.754;6.106;2024-03-23T12:33:04;1.87;;;0.47;;
12725;SDS011;6427;49.754;6.106;2024-03-23T12:35:32;3.13;;;0.90;;
12725;SDS011;6427;49.754;6.106;2024-03-23T12:38:00;3.47;;;0.57;;
12725;SDS011;6427;49.754;6.106;2024-03-23T12:40:28;4.73;;;0.57;;
12725;SDS011;6427;49.754;6.106;2024-03-23T12:42:56;4.70;;;1.00;;
12725;SDS011;6427;49.754;6.106;2024-03-23T12:45:23;3.93;;;0.80;;
12725;SDS011;6427;49.754;6.106;2024-03-23T12:47:51;2.80;;;0.60;;
12725;SDS011;6427;49.754;6.106;2024-03-23T12:50:19;2.43;;;0.87;;
12725;SDS011;6427;49.754;6.106;2024-03-23T12:52:46;5.55;;;1.05;;
12725;SDS011;6427;49.754;6.106;2024-03-23T12:55:14;4.37;;;0.93;;
12725;SDS011;6427;49.754;6.106;2024-03-23T12:57:41;3.57;;;1.10;;
12725;SDS011;6427;49.754;6.106;2024-03-23T13:00:09;2.90;;;0.50;;
12725;SDS011;6427;49.754;6.106;2024-03-23T13:02:40;3.23;;;1.00;;
12725;SDS011;6427;49.754;6.106;2024-03-23T13:05:08;2.00;;;0.40;;
12725;SDS011;6427;49.754;6.106;2024-03-23T13:07:38;3.43;;;0.47;;
12725;SDS011;6427;49.754;6.106;2024-03-23T13:10:05;2.72;;;0.68;;
12725;SDS011;6427;49.754;6.106;2024-03-23T13:12:34;2.87;;;0.40;;
12725;SDS011;6427;49.754;6.106;2024-03-23T13:15:01;1.90;;;0.60;;
12725;SDS011;6427;49.754;6.106;2024-03-23T13:17:29;1.37;;;0.70;;
12725;SDS011;6427;49.754;6.106;2024-03-23T13:19:56;4.63;;;1.13;;
12725;SDS011;6427;49.754;6.106;2024-03-23T13:22:24;2.40;;;0.90;;
12725;SDS011;6427;49.754;6.106;2024-03-23T13:24:52;0.40;;;0.40;;
12725;SDS011;6427;49.754;6.106;2024-03-23T13:27:20;1.07;;;0.40;;
12725;SDS011;6427;49.754;6.106;2024-03-23T13:29:47;3.37;;;1.20;;
12725;SDS011;6427;49.754;6.106;2024-03-23T13:32:15;2.20;;;0.60;;
12725;SDS011;6427;49.754;6.106;2024-03-23T13:34:42;0.77;;;0.33;;
12725;SDS011;6427;49.754;6.106;2024-03-23T13:37:10;3.30;;;0.63;;
12725;SDS011;6427;49.754;6.106;2024-03-23T13:39:37;4.03;;;0.60;;
12725;SDS011;6427;49.754;6.106;2024-03-23T13:42:06;1.70;;;0.27;;
12725;SDS011;6427;49.754;6.106;2024-03-23T13:44:33;4.27;;;1.33;;
12725;SDS011;6427;49.754;6.106;2024-03-23T13:47:01;2.63;;;0.70;;
12725;SDS011;6427;49.754;6.106;2024-03-23T13:49:29;1.60;;;0.20;;
12725;SDS011;6427;49.754;6.106;2024-03-23T13:51:56;3.10;;;1.50;;
12725;SDS011;6427;49.754;6.106;2024-03-23T13:54:24;4.57;;;0.60;;
12725;SDS011;6427;49.754;6.106;2024-03-23T13:56:52;3.03;;;0.80;;
12725;SDS011;6427;49.754;6.106;2024-03-23T13:59:20;13.10;;;6.33;;
12725;SDS011;6427;49.754;6.106;2024-03-23T14:01:48;6.63;;;2.97;;
12725;SDS011;6427;49.754;6.106;2024-03-23T14:04:15;3.00;;;0.70;;
12725;SDS011;6427;49.754;6.106;2024-03-23T14:06:48;2.67;;;0.70;;
12725;SDS011;6427;49.754;6.106;2024-03-23T14:09:17;4.03;;;0.70;;
12725;SDS011;6427;49.754;6.106;2024-03-23T14:11:46;2.90;;;0.97;;
12725;SDS011;6427;49.754;6.106;2024-03-23T14:14:13;3.63;;;1.70;;
12725;SDS011;6427;49.754;6.106;2024-03-23T14:16:41;1.43;;;1.10;;
12725;SDS011;6427;49.754;6.106;2024-03-23T14:19:08;1.87;;;0.80;;
12725;SDS011;6427;49.754;6.106;2024-03-23T14:21:36;2.35;;;1.30;;
12725;SDS011;6427;49.754;6.106;2024-03-23T14:24:04;1.03;;;0.60;;
12725;SDS011;6427;49.754;6.106;2024-03-23T14:26:32;2.70;;;1.23;;
12725;SDS011;6427;49.754;6.106;2024-03-23T14:29:00;1.97;;;0.73;;
12725;SDS011;6427;49.754;6.106;2024-03-23T14:31:28;1.70;;;0.50;;
12725;SDS011;6427;49.754;6.106;2024-03-23T14:33:55;4.40;;;0.50;;
12725;SDS011;6427;49.754;6.106;2024-03-23T14:36:23;2.20;;;0.50;;
12725;SDS011;6427;49.754;6.106;2024-03-23T14:38:50;1.50;;;0.50;;
12725;SDS011;6427;49.754;6.106;2024-03-23T14:41:19;2.47;;;0.53;;
12725;SDS011;6427;49.754;6.106;2024-03-23T14:43:46;0.83;;;0.60;;
12725;SDS011;6427;49.754;6.106;2024-03-23T14:46:14;3.27;;;0.60;;
12725;SDS011;6427;49.754;6.106;2024-03-23T14:48:42;3.33;;;0.70;;
12725;SDS011;6427;49.754;6.106;2024-03-23T14:51:12;0.90;;;0.23;;
12725;SDS011;6427;49.754;6.106;2024-03-23T14:53:40;1.03;;;0.40;;
12725;SDS011;6427;49.754;6.106;2024-03-23T14:56:07;0.43;;;0.30;;
12725;SDS011;6427;49.754;6.106;2024-03-23T14:58:34;1.97;;;0.40;;
12725;SDS011;6427;49.754;6.106;2024-03-23T15:01:06;2.80;;;0.40;;
12725;SDS011;6427;49.754;6.106;2024-03-23T15:03:37;3.03;;;0.47;;
12725;SDS011;6427;49.754;6.106;2024-03-23T15:06:04;1.03;;;0.37;;
12725;SDS011;6427;49.754;6.106;2024-03-23T15:08:33;2.23;;;0.53;;
12725;SDS011;6427;49.754;6.106;2024-03-23T15:11:00;1.77;;;0.53;;
12725;SDS011;6427;49.754;6.106;2024-03-23T15:13:28;1.20;;;0.30;;
12725;SDS011;6427;49.754;6.106;2024-03-23T15:15:55;1.33;;;0.30;;
12725;SDS011;6427;49.754;6.106;2024-03-23T15:18:23;2.43;;;0.37;;
12725;SDS011;6427;49.754;6.106;2024-03-23T15:20:57;5.33;;;0.53;;
12725;SDS011;6427;49.754;6.106;2024-03-23T15:23:29;2.17;;;0.47;;
12725;SDS011;6427;49.754;6.106;2024-03-23T15:25:58;0.83;;;0.33;;
12725;SDS011;6427;49.754;6.106;2024-03-23T15:28:25;2.20;;;0.50;;
12725;SDS011;6427;49.754;6.106;2024-03-23T15:31:05;2.63;;;0.30;;
12725;SDS011;6427;49.754;6.106;2024-03-23T15:33:32;2.62;;;0.57;;
12725;SDS011;6427;49.754;6.106;2024-03-23T15:36:00;3.13;;;0.60;;
12725;SDS011;6427;49.754;6.106;2024-03-23T15:38:28;3.23;;;0.37;;
12725;SDS011;6427;49.754;6.106;2024-03-23T15:40:55;0.50;;;0.20;;
12725;SDS011;6427;49.754;6.106;2024-03-23T15:43:23;1.67;;;0.30;;
12725;SDS011;6427;49.754;6.106;2024-03-23T15:45:54;0.90;;;0.40;;
12725;SDS011;6427;49.754;6.106;2024-03-23T15:48:21;2.20;;;0.40;;
12725;SDS011;6427;49.754;6.106;2024-03-23T15:50:52;0.73;;;0.20;;
12725;SDS011;6427;49.754;6.106;2024-03-23T15:53:19;2.03;;;0.43;;
12725;SDS011;6427;49.754;6.106;2024-03-23T15:55:57;1.40;;;0.33;;
12725;SDS011;6427;49.754;6.106;2024-03-23T15:58:23;3.70;;;0.50;;
12725;SDS011;6427;49.754;6.106;2024-03-23T16:00:57;1.10;;;0.30;;
12725;SDS011;6427;49.754;6.106;2024-03-23T16:03:30;2.20;;;0.77;;
12725;SDS011;6427;49.754;6.106;2024-03-23T16:05:58;0.93;;;0.40;;
12725;SDS011;6427;49.754;6.106;2024-03-23T16:08:25;0.60;;;0.40;;
12725;SDS011;6427;49.754;6.106;2024-03-23T16:10:54;1.80;;;0.37;;
12725;SDS011;6427;49.754;6.106;2024-03-23T16:13:21;1.67;;;0.60;;
12725;SDS011;6427;49.754;6.106;2024-03-23T16:15:58;1.87;;;0.68;;
12725;SDS011;6427;49.754;6.106;2024-03-23T16:18:23;1.53;;;0.60;;